sensor_id;sensor_type;location;lat;lon;timestamp;temperature;humidity
1978;DHT22;989;53.016;8.346;2022-08-25T00:01:24;21.00;1.00
1978;DHT22;989;53.016;8.346;2022-08-25T00:03:52;21.00;1.00
1978;DHT22;989;53.016;8.346;2022-08-25T00:06:18;21.00;1.00
1978;DHT22;989;53.016;8.346;2022-08-25T00:08:44;20.90;1.00
1978;DHT22;989;53.016;8.346;2022-08-25T00:11:17;20.90;1.00
1978;DHT22;989;53.016;8.346;2022-08-25T00:13:47;20.80;1.00
1978;DHT22;989;53.016;8.346;2022-08-25T00:16:18;20.70;1.00
1978;DHT22;989;53.016;8.346;2022-08-25T00:18:49;20.70;1.00
1978;DHT22;989;53.016;8.346;2022-08-25T00:21:16;20.70;1.00
1978;DHT22;989;53.016;8.346;2022-08-25T00:23:43;20.70;1.00
1978;DHT22;989;53.016;8.346;2022-08-25T00:26:10;20.60;1.00
1978;DHT22;989;53.016;8.346;2022-08-25T00:28:36;20.60;1.00
1978;DHT22;989;53.016;8.346;2022-08-25T00:31:05;20.50;1.00
1978;DHT22;989;53.016;8.346;2022-08-25T00:33:32;20.50;1.00
1978;DHT22;989;53.016;8.346;2022-08-25T00:35:59;20.40;1.00
1978;DHT22;989;53.016;8.346;2022-08-25T00:38:25;20.30;1.00
1978;DHT22;989;53.016;8.346;2022-08-25T00:40:52;20.20;1.00
1978;DHT22;989;53.016;8.346;2022-08-25T00:46:06;20.10;1.00
1978;DHT22;989;53.016;8.346;2022-08-25T00:48:33;20.00;1.00
1978;DHT22;989;53.016;8.346;2022-08-25T00:51:01;19.90;1.00
1978;DHT22;989;53.016;8.346;2022-08-25T00:53:28;19.80;1.00
1978;DHT22;989;53.016;8.346;2022-08-25T00:55:54;19.70;1.00
1978;DHT22;989;53.016;8.346;2022-08-25T00:58:23;19.70;1.00
1978;DHT22;989;53.016;8.346;2022-08-25T01:00:52;19.70;1.00
1978;DHT22;989;53.016;8.346;2022-08-25T01:03:22;19.50;1.00
1978;DHT22;989;53.016;8.346;2022-08-25T01:05:50;19.40;1.00
1978;DHT22;989;53.016;8.346;2022-08-25T01:08:16;19.40;1.00
1978;DHT22;989;53.016;8.346;2022-08-25T01:10:46;19.30;1.00
1978;DHT22;989;53.016;8.346;2022-08-25T01:13:20;19.30;1.00
1978;DHT22;989;53.016;8.346;2022-08-25T01:15:49;19.30;1.00
1978;DHT22;989;53.016;8.346;2022-08-25T01:18:18;19.30;1.00
1978;DHT22;989;53.016;8.346;2022-08-25T01:20:52;19.30;1.00
1978;DHT22;989;53.016;8.346;2022-08-25T01:23:19;19.30;1.00
1978;DHT22;989;53.016;8.346;2022-08-25T01:25:55;19.30;1.00
1978;DHT22;989;53.016;8.346;2022-08-25T01:28:28;19.30;1.00
1978;DHT22;989;53.016;8.346;2022-08-25T01:30:55;19.30;1.00
1978;DHT22;989;53.016;8.346;2022-08-25T01:33:20;19.30;1.00
1978;DHT22;989;53.016;8.346;2022-08-25T01:35:47;19.40;1.00
1978;DHT22;989;53.016;8.346;2022-08-25T01:38:13;19.40;1.00
1978;DHT22;989;53.016;8.346;2022-08-25T01:40:40;19.40;1.00
1978;DHT22;989;53.016;8.346;2022-08-25T01:45:37;19.30;1.00
1978;DHT22;989;53.016;8.346;2022-08-25T01:48:05;19.30;1.00
1978;DHT22;989;53.016;8.346;2022-08-25T01:50:32;19.20;1.00
1978;DHT22;989;53.016;8.346;2022-08-25T01:55:46;19.20;1.00
1978;DHT22;989;53.016;8.346;2022-08-25T01:58:25;19.20;1.00
1978;DHT22;989;53.016;8.346;2022-08-25T02:00:55;19.20;1.00
1978;DHT22;989;53.016;8.346;2022-08-25T02:03:25;19.20;1.00
1978;DHT22;989;53.016;8.346;2022-08-25T02:05:51;19.10;1.00
1978;DHT22;989;53.016;8.346;2022-08-25T02:08:18;19.10;1.00
1978;DHT22;989;53.016;8.346;2022-08-25T02:10:44;19.10;1.00
1978;DHT22;989;53.016;8.346;2022-08-25T02:13:11;19.10;1.00
1978;DHT22;989;53.016;8.346;2022-08-25T02:15:42;19.00;1.00
1978;DHT22;989;53.016;8.346;2022-08-25T02:18:10;18.90;1.00
1978;DHT22;989;53.016;8.346;2022-08-25T02:20:37;18.80;1.00
1978;DHT22;989;53.016;8.346;2022-08-25T02:23:03;18.80;1.00
1978;DHT22;989;53.016;8.346;2022-08-25T02:25:30;18.70;1.00
1978;DHT22;989;53.016;8.346;2022-08-25T02:27:56;18.50;1.00
1978;DHT22;989;53.016;8.346;2022-08-25T02:30:23;18.40;1.00
1978;DHT22;989;53.016;8.346;2022-08-25T02:32:49;18.30;1.00
1978;DHT22;989;53.016;8.346;2022-08-25T02:35:15;18.30;1.00
1978;DHT22;989;53.016;8.346;2022-08-25T02:37:41;18.20;1.00
1978;DHT22;989;53.016;8.346;2022-08-25T02:40:07;18.20;1.00
1978;DHT22;989;53.016;8.346;2022-08-25T02:42:34;18.20;1.00
1978;DHT22;989;53.016;8.346;2022-08-25T02:44:59;18.10;1.00
1978;DHT22;989;53.016;8.346;2022-08-25T02:47:25;18.20;1.00
1978;DHT22;989;53.016;8.346;2022-08-25T02:49:51;18.20;1.00
1978;DHT22;989;53.016;8.346;2022-08-25T02:52:17;18.10;1.00
1978;DHT22;989;53.016;8.346;2022-08-25T02:54:43;18.10;1.00
1978;DHT22;989;53.016;8.346;2022-08-25T02:57:09;18.10;1.00
1978;DHT22;989;53.016;8.346;2022-08-25T02:59:36;18.10;1.00
1978;DHT22;989;53.016;8.346;2022-08-25T03:02:04;18.00;1.00
1978;DHT22;989;53.016;8.346;2022-08-25T03:04:30;18.00;1.00
1978;DHT22;989;53.016;8.346;2022-08-25T03:06:56;18.00;1.00
1978;DHT22;989;53.016;8.346;2022-08-25T03:09:25;18.10;1.00
1978;DHT22;989;53.016;8.346;2022-08-25T03:11:51;18.10;1.00
1978;DHT22;989;53.016;8.346;2022-08-25T03:14:17;18.10;1.00
1978;DHT22;989;53.016;8.346;2022-08-25T03:16:42;18.10;1.00
1978;DHT22;989;53.016;8.346;2022-08-25T03:19:09;18.10;1.00
1978;DHT22;989;53.016;8.346;2022-08-25T03:21:36;18.10;1.00
1978;DHT22;989;53.016;8.346;2022-08-25T03:24:03;18.00;1.00
1978;DHT22;989;53.016;8.346;2022-08-25T03:26:30;18.00;1.00
1978;DHT22;989;53.016;8.346;2022-08-25T03:29:14;17.90;1.40
1978;DHT22;989;53.016;8.346;2022-08-25T03:31:41;17.90;2.30
1978;DHT22;989;53.016;8.346;2022-08-25T03:34:13;17.90;3.10
1978;DHT22;989;53.016;8.346;2022-08-25T03:36:41;17.90;3.60
1978;DHT22;989;53.016;8.346;2022-08-25T03:39:08;17.90;4.90
1978;DHT22;989;53.016;8.346;2022-08-25T03:41:34;17.90;5.10
1978;DHT22;989;53.016;8.346;2022-08-25T03:44:03;17.90;5.10
1978;DHT22;989;53.016;8.346;2022-08-25T03:46:33;17.80;6.30
1978;DHT22;989;53.016;8.346;2022-08-25T03:49:03;17.80;7.70
1978;DHT22;989;53.016;8.346;2022-08-25T03:51:34;17.80;7.80
1978;DHT22;989;53.016;8.346;2022-08-25T03:54:05;17.80;8.10
1978;DHT22;989;53.016;8.346;2022-08-25T03:56:32;17.70;9.60
1978;DHT22;989;53.016;8.346;2022-08-25T03:58:57;17.60;10.10
1978;DHT22;989;53.016;8.346;2022-08-25T04:01:23;17.60;12.40
1978;DHT22;989;53.016;8.346;2022-08-25T04:03:49;17.60;13.20
1978;DHT22;989;53.016;8.346;2022-08-25T04:06:16;17.60;13.40
1978;DHT22;989;53.016;8.346;2022-08-25T04:08:42;17.60;14.10
1978;DHT22;989;53.016;8.346;2022-08-25T04:11:12;17.60;14.20
1978;DHT22;989;53.016;8.346;2022-08-25T04:13:39;17.60;15.30
1978;DHT22;989;53.016;8.346;2022-08-25T04:16:18;17.50;15.30
1978;DHT22;989;53.016;8.346;2022-08-25T04:18:47;17.50;16.10
1978;DHT22;989;53.016;8.346;2022-08-25T04:21:15;17.50;17.80
1978;DHT22;989;53.016;8.346;2022-08-25T04:23:43;17.50;19.60
1978;DHT22;989;53.016;8.346;2022-08-25T04:26:20;17.40;20.60
1978;DHT22;989;53.016;8.346;2022-08-25T04:28:48;17.50;20.40
1978;DHT22;989;53.016;8.346;2022-08-25T04:31:15;17.40;21.40
1978;DHT22;989;53.016;8.346;2022-08-25T04:33:41;17.30;22.70
1978;DHT22;989;53.016;8.346;2022-08-25T04:36:09;17.40;23.80
1978;DHT22;989;53.016;8.346;2022-08-25T04:38:42;17.40;24.90
1978;DHT22;989;53.016;8.346;2022-08-25T04:41:10;17.40;25.20
1978;DHT22;989;53.016;8.346;2022-08-25T04:43:39;17.40;25.30
1978;DHT22;989;53.016;8.346;2022-08-25T04:46:17;17.40;26.50
1978;DHT22;989;53.016;8.346;2022-08-25T04:49:07;17.40;27.00
1978;DHT22;989;53.016;8.346;2022-08-25T04:51:42;17.40;29.20
1978;DHT22;989;53.016;8.346;2022-08-25T04:54:11;17.50;29.90
1978;DHT22;989;53.016;8.346;2022-08-25T04:56:41;17.50;30.00
1978;DHT22;989;53.016;8.346;2022-08-25T04:59:10;17.40;30.00
1978;DHT22;989;53.016;8.346;2022-08-25T05:01:39;17.50;31.50
1978;DHT22;989;53.016;8.346;2022-08-25T05:04:07;17.50;32.60
1978;DHT22;989;53.016;8.346;2022-08-25T05:06:34;17.50;32.70
1978;DHT22;989;53.016;8.346;2022-08-25T05:09:01;17.50;33.70
1978;DHT22;989;53.016;8.346;2022-08-25T05:11:28;17.50;34.20
1978;DHT22;989;53.016;8.346;2022-08-25T05:13:57;17.60;34.70
1978;DHT22;989;53.016;8.346;2022-08-25T05:16:24;17.70;36.00
1978;DHT22;989;53.016;8.346;2022-08-25T05:18:52;17.70;36.20
1978;DHT22;989;53.016;8.346;2022-08-25T05:21:21;17.80;35.70
1978;DHT22;989;53.016;8.346;2022-08-25T05:23:49;17.80;36.70
1978;DHT22;989;53.016;8.346;2022-08-25T05:26:19;17.80;36.70
1978;DHT22;989;53.016;8.346;2022-08-25T05:28:48;17.80;36.50
1978;DHT22;989;53.016;8.346;2022-08-25T05:31:15;17.90;37.40
1978;DHT22;989;53.016;8.346;2022-08-25T05:33:41;18.00;37.80
1978;DHT22;989;53.016;8.346;2022-08-25T05:36:09;18.00;37.20
1978;DHT22;989;53.016;8.346;2022-08-25T05:38:37;18.10;38.00
1978;DHT22;989;53.016;8.346;2022-08-25T05:41:09;18.20;38.30
1978;DHT22;989;53.016;8.346;2022-08-25T05:43:37;18.30;38.20
1978;DHT22;989;53.016;8.346;2022-08-25T05:46:04;18.30;37.50
1978;DHT22;989;53.016;8.346;2022-08-25T05:48:30;18.40;37.10
1978;DHT22;989;53.016;8.346;2022-08-25T05:50:58;18.50;37.20
1978;DHT22;989;53.016;8.346;2022-08-25T05:53:26;18.50;36.80
1978;DHT22;989;53.016;8.346;2022-08-25T05:55:54;18.60;35.70
1978;DHT22;989;53.016;8.346;2022-08-25T05:58:21;18.70;34.80
1978;DHT22;989;53.016;8.346;2022-08-25T06:00:48;18.80;34.30
1978;DHT22;989;53.016;8.346;2022-08-25T06:03:15;18.90;32.40
1978;DHT22;989;53.016;8.346;2022-08-25T06:05:41;18.90;31.40
1978;DHT22;989;53.016;8.346;2022-08-25T06:08:06;19.00;31.50
1978;DHT22;989;53.016;8.346;2022-08-25T06:10:33;19.10;31.50
1978;DHT22;989;53.016;8.346;2022-08-25T06:12:59;19.10;30.70
1978;DHT22;989;53.016;8.346;2022-08-25T06:15:25;19.20;30.30
1978;DHT22;989;53.016;8.346;2022-08-25T06:17:52;19.40;27.90
1978;DHT22;989;53.016;8.346;2022-08-25T06:20:20;19.40;26.80
1978;DHT22;989;53.016;8.346;2022-08-25T06:22:48;19.50;26.40
1978;DHT22;989;53.016;8.346;2022-08-25T06:25:16;19.60;23.40
1978;DHT22;989;53.016;8.346;2022-08-25T06:27:44;19.70;22.70
1978;DHT22;989;53.016;8.346;2022-08-25T06:30:12;19.80;21.90
1978;DHT22;989;53.016;8.346;2022-08-25T06:32:42;19.90;21.60
1978;DHT22;989;53.016;8.346;2022-08-25T06:35:11;20.00;20.20
1978;DHT22;989;53.016;8.346;2022-08-25T06:37:42;20.10;18.90
1978;DHT22;989;53.016;8.346;2022-08-25T06:40:09;20.20;17.10
1978;DHT22;989;53.016;8.346;2022-08-25T06:42:36;20.30;17.20
1978;DHT22;989;53.016;8.346;2022-08-25T06:45:03;20.40;16.00
1978;DHT22;989;53.016;8.346;2022-08-25T06:47:29;20.50;15.70
1978;DHT22;989;53.016;8.346;2022-08-25T06:49:55;20.60;14.50
1978;DHT22;989;53.016;8.346;2022-08-25T06:52:20;20.70;11.50
1978;DHT22;989;53.016;8.346;2022-08-25T06:54:46;20.80;9.60
1978;DHT22;989;53.016;8.346;2022-08-25T06:57:12;20.90;9.30
1978;DHT22;989;53.016;8.346;2022-08-25T06:59:38;21.10;7.40
1978;DHT22;989;53.016;8.346;2022-08-25T07:02:05;21.20;7.40
1978;DHT22;989;53.016;8.346;2022-08-25T07:04:32;21.40;6.60
1978;DHT22;989;53.016;8.346;2022-08-25T07:06:59;21.70;1.50
1978;DHT22;989;53.016;8.346;2022-08-25T07:09:25;21.70;1.00
1978;DHT22;989;53.016;8.346;2022-08-25T07:11:51;21.90;1.00
1978;DHT22;989;53.016;8.346;2022-08-25T07:14:17;22.00;1.00
1978;DHT22;989;53.016;8.346;2022-08-25T07:16:44;22.20;1.00
1978;DHT22;989;53.016;8.346;2022-08-25T07:19:10;22.30;1.00
1978;DHT22;989;53.016;8.346;2022-08-25T07:21:38;22.50;1.00
1978;DHT22;989;53.016;8.346;2022-08-25T07:24:11;22.90;1.00
1978;DHT22;989;53.016;8.346;2022-08-25T07:26:39;23.50;1.00
1978;DHT22;989;53.016;8.346;2022-08-25T07:29:13;23.90;1.00
1978;DHT22;989;53.016;8.346;2022-08-25T07:31:49;24.40;1.00
1978;DHT22;989;53.016;8.346;2022-08-25T07:34:15;24.80;1.00
1978;DHT22;989;53.016;8.346;2022-08-25T07:37:01;24.90;1.00
1978;DHT22;989;53.016;8.346;2022-08-25T07:39:29;25.20;1.00
1978;DHT22;989;53.016;8.346;2022-08-25T07:41:56;25.40;1.00
1978;DHT22;989;53.016;8.346;2022-08-25T07:44:22;25.30;1.00
1978;DHT22;989;53.016;8.346;2022-08-25T07:46:49;25.80;1.00
1978;DHT22;989;53.016;8.346;2022-08-25T07:49:17;26.00;1.00
1978;DHT22;989;53.016;8.346;2022-08-25T07:51:44;26.20;1.00
1978;DHT22;989;53.016;8.346;2022-08-25T07:54:10;25.90;1.00
1978;DHT22;989;53.016;8.346;2022-08-25T07:56:36;26.00;1.00
1978;DHT22;989;53.016;8.346;2022-08-25T07:59:02;26.30;1.00
1978;DHT22;989;53.016;8.346;2022-08-25T08:01:27;26.40;1.00
1978;DHT22;989;53.016;8.346;2022-08-25T08:03:53;26.80;1.00
1978;DHT22;989;53.016;8.346;2022-08-25T08:06:22;26.80;1.00
1978;DHT22;989;53.016;8.346;2022-08-25T08:08:49;26.90;1.00
1978;DHT22;989;53.016;8.346;2022-08-25T08:11:23;27.40;1.00
1978;DHT22;989;53.016;8.346;2022-08-25T08:13:52;27.60;1.00
1978;DHT22;989;53.016;8.346;2022-08-25T08:16:21;27.50;1.00
1978;DHT22;989;53.016;8.346;2022-08-25T08:18:48;27.70;1.00
1978;DHT22;989;53.016;8.346;2022-08-25T08:21:20;28.00;1.00
1978;DHT22;989;53.016;8.346;2022-08-25T08:23:49;28.10;1.00
1978;DHT22;989;53.016;8.346;2022-08-25T08:26:16;28.30;1.00
1978;DHT22;989;53.016;8.346;2022-08-25T08:28:42;28.50;1.00
1978;DHT22;989;53.016;8.346;2022-08-25T08:31:08;28.20;1.00
1978;DHT22;989;53.016;8.346;2022-08-25T08:33:34;28.30;1.00
1978;DHT22;989;53.016;8.346;2022-08-25T08:36:10;28.30;1.00
1978;DHT22;989;53.016;8.346;2022-08-25T08:38:38;28.40;1.00
1978;DHT22;989;53.016;8.346;2022-08-25T08:47:36;28.70;1.00
1978;DHT22;989;53.016;8.346;2022-08-25T08:53:30;29.10;1.00
1978;DHT22;989;53.016;8.346;2022-08-25T08:56:18;29.00;1.00
1978;DHT22;989;53.016;8.346;2022-08-25T09:01:50;28.80;1.00
1978;DHT22;989;53.016;8.346;2022-08-25T09:04:44;28.90;1.00
1978;DHT22;989;53.016;8.346;2022-08-25T09:07:24;29.10;1.00
1978;DHT22;989;53.016;8.346;2022-08-25T09:09:55;29.30;1.00
1978;DHT22;989;53.016;8.346;2022-08-25T09:12:39;29.70;1.00
1978;DHT22;989;53.016;8.346;2022-08-25T09:18:47;30.30;1.00
1978;DHT22;989;53.016;8.346;2022-08-25T09:21:33;30.10;1.00
1978;DHT22;989;53.016;8.346;2022-08-25T09:27:17;29.60;1.00
1978;DHT22;989;53.016;8.346;2022-08-25T09:30:13;30.10;1.00
1978;DHT22;989;53.016;8.346;2022-08-25T09:32:51;30.40;1.00
1978;DHT22;989;53.016;8.346;2022-08-25T09:35:30;30.30;1.00
1978;DHT22;989;53.016;8.346;2022-08-25T09:38:02;30.10;1.00
1978;DHT22;989;53.016;8.346;2022-08-25T09:40:33;30.10;1.00
1978;DHT22;989;53.016;8.346;2022-08-25T09:43:17;30.60;1.00
1978;DHT22;989;53.016;8.346;2022-08-25T09:45:48;31.00;1.00
1978;DHT22;989;53.016;8.346;2022-08-25T09:48:32;30.60;1.00
1978;DHT22;989;53.016;8.346;2022-08-25T09:51:25;30.80;1.00
1978;DHT22;989;53.016;8.346;2022-08-25T10:01:55;30.60;1.00
1978;DHT22;989;53.016;8.346;2022-08-25T10:04:27;30.20;1.00
1978;DHT22;989;53.016;8.346;2022-08-25T10:06:59;30.80;1.00
1978;DHT22;989;53.016;8.346;2022-08-25T10:09:35;31.00;1.00
1978;DHT22;989;53.016;8.346;2022-08-25T10:12:23;31.00;1.00
1978;DHT22;989;53.016;8.346;2022-08-25T10:14:54;31.50;1.00
1978;DHT22;989;53.016;8.346;2022-08-25T10:17:31;31.40;1.00
1978;DHT22;989;53.016;8.346;2022-08-25T10:22:39;31.20;1.00
1978;DHT22;989;53.016;8.346;2022-08-25T10:25:09;30.90;1.00
1978;DHT22;989;53.016;8.346;2022-08-25T10:27:38;31.40;1.00
1978;DHT22;989;53.016;8.346;2022-08-25T10:30:23;31.10;1.00
1978;DHT22;989;53.016;8.346;2022-08-25T10:32:57;31.70;1.00
1978;DHT22;989;53.016;8.346;2022-08-25T10:35:40;31.90;1.00
1978;DHT22;989;53.016;8.346;2022-08-25T10:38:38;32.00;1.00
1978;DHT22;989;53.016;8.346;2022-08-25T10:44:36;32.20;1.00
1978;DHT22;989;53.016;8.346;2022-08-25T10:47:49;32.60;1.00
1978;DHT22;989;53.016;8.346;2022-08-25T10:50:52;32.20;1.00
1978;DHT22;989;53.016;8.346;2022-08-25T10:56:16;32.30;1.00
1978;DHT22;989;53.016;8.346;2022-08-25T11:04:11;31.90;1.00
1978;DHT22;989;53.016;8.346;2022-08-25T11:07:22;31.80;1.00
1978;DHT22;989;53.016;8.346;2022-08-25T11:09:38;31.90;1.00
1978;DHT22;989;53.016;8.346;2022-08-25T11:12:15;31.90;1.00
1978;DHT22;989;53.016;8.346;2022-08-25T11:14:53;31.40;1.00
1978;DHT22;989;53.016;8.346;2022-08-25T11:17:33;31.90;1.00
1978;DHT22;989;53.016;8.346;2022-08-25T11:20:09;32.30;1.00
1978;DHT22;989;53.016;8.346;2022-08-25T11:22:45;32.60;1.00
1978;DHT22;989;53.016;8.346;2022-08-25T11:25:27;32.70;1.00
1978;DHT22;989;53.016;8.346;2022-08-25T11:27:59;33.10;1.00
1978;DHT22;989;53.016;8.346;2022-08-25T11:30:29;33.00;1.00
1978;DHT22;989;53.016;8.346;2022-08-25T11:32:55;33.90;1.00
1978;DHT22;989;53.016;8.346;2022-08-25T11:35:36;34.40;1.00
1978;DHT22;989;53.016;8.346;2022-08-25T11:44:42;32.90;1.00
1978;DHT22;989;53.016;8.346;2022-08-25T11:47:22;32.80;1.00
1978;DHT22;989;53.016;8.346;2022-08-25T11:50:01;32.70;1.00
1978;DHT22;989;53.016;8.346;2022-08-25T11:52:54;33.00;1.00
1978;DHT22;989;53.016;8.346;2022-08-25T11:55:47;33.60;1.00
1978;DHT22;989;53.016;8.346;2022-08-25T11:58:26;33.20;1.00
1978;DHT22;989;53.016;8.346;2022-08-25T12:01:03;34.10;1.00
1978;DHT22;989;53.016;8.346;2022-08-25T12:06:27;35.40;1.00
1978;DHT22;989;53.016;8.346;2022-08-25T12:19:46;32.60;1.00
1978;DHT22;989;53.016;8.346;2022-08-25T12:27:32;33.20;1.00
1978;DHT22;989;53.016;8.346;2022-08-25T12:36:05;35.10;1.00
1978;DHT22;989;53.016;8.346;2022-08-25T12:38:48;35.20;1.00
1978;DHT22;989;53.016;8.346;2022-08-25T12:41:20;35.40;1.00
1978;DHT22;989;53.016;8.346;2022-08-25T12:43:50;35.10;1.00
1978;DHT22;989;53.016;8.346;2022-08-25T12:49:00;33.00;1.00
1978;DHT22;989;53.016;8.346;2022-08-25T12:51:51;32.30;1.00
1978;DHT22;989;53.016;8.346;2022-08-25T12:54:21;32.90;1.00
1978;DHT22;989;53.016;8.346;2022-08-25T12:56:56;33.20;1.00
1978;DHT22;989;53.016;8.346;2022-08-25T12:59:38;33.40;1.00
1978;DHT22;989;53.016;8.346;2022-08-25T13:12:04;35.90;1.00
1978;DHT22;989;53.016;8.346;2022-08-25T13:14:37;37.20;1.00
1978;DHT22;989;53.016;8.346;2022-08-25T13:17:04;36.90;1.00
1978;DHT22;989;53.016;8.346;2022-08-25T13:19:31;36.20;1.00
1978;DHT22;989;53.016;8.346;2022-08-25T13:21:59;36.20;1.00
1978;DHT22;989;53.016;8.346;2022-08-25T13:24:27;36.60;1.00
1978;DHT22;989;53.016;8.346;2022-08-25T13:26:56;36.60;1.00
1978;DHT22;989;53.016;8.346;2022-08-25T13:29:26;36.50;1.00
1978;DHT22;989;53.016;8.346;2022-08-25T13:32:03;36.70;1.00
1978;DHT22;989;53.016;8.346;2022-08-25T13:34:38;36.80;1.00
1978;DHT22;989;53.016;8.346;2022-08-25T13:37:08;36.70;1.00
1978;DHT22;989;53.016;8.346;2022-08-25T13:40:21;37.20;1.00
1978;DHT22;989;53.016;8.346;2022-08-25T13:42:59;37.10;1.00
1978;DHT22;989;53.016;8.346;2022-08-25T13:45:39;37.30;1.00
1978;DHT22;989;53.016;8.346;2022-08-25T13:48:11;37.40;1.00
1978;DHT22;989;53.016;8.346;2022-08-25T13:50:41;37.10;1.00
1978;DHT22;989;53.016;8.346;2022-08-25T13:53:33;37.30;1.00
1978;DHT22;989;53.016;8.346;2022-08-25T13:56:01;37.60;1.00
1978;DHT22;989;53.016;8.346;2022-08-25T13:58:34;38.10;1.00
1978;DHT22;989;53.016;8.346;2022-08-25T14:01:02;37.60;1.00
1978;DHT22;989;53.016;8.346;2022-08-25T14:03:44;37.40;1.00
1978;DHT22;989;53.016;8.346;2022-08-25T14:09:04;34.20;1.00
1978;DHT22;989;53.016;8.346;2022-08-25T14:11:33;35.50;1.00
1978;DHT22;989;53.016;8.346;2022-08-25T14:14:12;37.00;1.00
1978;DHT22;989;53.016;8.346;2022-08-25T14:17:08;37.40;1.00
1978;DHT22;989;53.016;8.346;2022-08-25T14:19:36;36.90;1.00
1978;DHT22;989;53.016;8.346;2022-08-25T14:22:11;36.50;1.00
1978;DHT22;989;53.016;8.346;2022-08-25T14:24:39;34.70;1.00
1978;DHT22;989;53.016;8.346;2022-08-25T14:27:05;33.50;1.00
1978;DHT22;989;53.016;8.346;2022-08-25T14:29:31;33.50;1.00
1978;DHT22;989;53.016;8.346;2022-08-25T14:31:57;34.60;1.00
1978;DHT22;989;53.016;8.346;2022-08-25T14:34:29;35.90;1.00
1978;DHT22;989;53.016;8.346;2022-08-25T14:36:57;36.80;1.00
1978;DHT22;989;53.016;8.346;2022-08-25T14:39:24;35.80;1.00
1978;DHT22;989;53.016;8.346;2022-08-25T14:41:50;37.20;1.00
1978;DHT22;989;53.016;8.346;2022-08-25T14:44:16;38.00;1.00
1978;DHT22;989;53.016;8.346;2022-08-25T14:46:54;38.70;1.00
1978;DHT22;989;53.016;8.346;2022-08-25T14:49:29;38.80;1.00
1978;DHT22;989;53.016;8.346;2022-08-25T14:52:06;37.80;1.00
1978;DHT22;989;53.016;8.346;2022-08-25T14:54:34;36.90;1.00
1978;DHT22;989;53.016;8.346;2022-08-25T14:57:00;37.30;1.00
1978;DHT22;989;53.016;8.346;2022-08-25T14:59:25;37.10;1.00
1978;DHT22;989;53.016;8.346;2022-08-25T15:01:52;37.10;1.00
1978;DHT22;989;53.016;8.346;2022-08-25T15:04:20;37.80;1.00
1978;DHT22;989;53.016;8.346;2022-08-25T15:06:52;38.30;1.00
1978;DHT22;989;53.016;8.346;2022-08-25T15:09:20;38.30;1.00
1978;DHT22;989;53.016;8.346;2022-08-25T15:11:48;38.70;1.00
1978;DHT22;989;53.016;8.346;2022-08-25T15:14:18;37.20;1.00
1978;DHT22;989;53.016;8.346;2022-08-25T15:16:49;36.00;1.00
1978;DHT22;989;53.016;8.346;2022-08-25T15:19:18;35.90;1.00
1978;DHT22;989;53.016;8.346;2022-08-25T15:21:45;35.00;1.00
1978;DHT22;989;53.016;8.346;2022-08-25T15:24:13;33.90;1.00
1978;DHT22;989;53.016;8.346;2022-08-25T15:26:47;33.20;1.00
1978;DHT22;989;53.016;8.346;2022-08-25T15:29:16;33.30;1.00
1978;DHT22;989;53.016;8.346;2022-08-25T15:31:43;35.00;1.00
1978;DHT22;989;53.016;8.346;2022-08-25T15:34:09;36.00;1.00
1978;DHT22;989;53.016;8.346;2022-08-25T15:36:35;36.60;1.00
1978;DHT22;989;53.016;8.346;2022-08-25T15:39:02;36.80;1.00
1978;DHT22;989;53.016;8.346;2022-08-25T15:41:28;35.80;1.00
1978;DHT22;989;53.016;8.346;2022-08-25T15:43:55;34.30;1.00
1978;DHT22;989;53.016;8.346;2022-08-25T15:46:23;34.80;1.00
1978;DHT22;989;53.016;8.346;2022-08-25T15:48:50;36.00;1.00
1978;DHT22;989;53.016;8.346;2022-08-25T15:51:16;36.90;1.00
1978;DHT22;989;53.016;8.346;2022-08-25T15:53:44;37.50;1.00
1978;DHT22;989;53.016;8.346;2022-08-25T15:56:10;37.90;1.00
1978;DHT22;989;53.016;8.346;2022-08-25T15:58:42;38.40;1.00
1978;DHT22;989;53.016;8.346;2022-08-25T16:01:13;36.70;1.00
1978;DHT22;989;53.016;8.346;2022-08-25T16:03:39;35.90;1.00
1978;DHT22;989;53.016;8.346;2022-08-25T16:06:05;36.20;1.00
1978;DHT22;989;53.016;8.346;2022-08-25T16:08:32;36.90;1.00
1978;DHT22;989;53.016;8.346;2022-08-25T16:10:58;37.50;1.00
1978;DHT22;989;53.016;8.346;2022-08-25T16:13:24;38.00;1.00
1978;DHT22;989;53.016;8.346;2022-08-25T16:15:49;37.80;1.00
1978;DHT22;989;53.016;8.346;2022-08-25T16:18:15;37.10;1.00
1978;DHT22;989;53.016;8.346;2022-08-25T16:20:44;36.90;1.00
1978;DHT22;989;53.016;8.346;2022-08-25T16:23:11;36.90;1.00
1978;DHT22;989;53.016;8.346;2022-08-25T16:25:41;37.20;1.00
1978;DHT22;989;53.016;8.346;2022-08-25T16:28:09;37.30;1.00
1978;DHT22;989;53.016;8.346;2022-08-25T16:30:36;36.60;1.00
1978;DHT22;989;53.016;8.346;2022-08-25T16:33:04;35.40;1.00
1978;DHT22;989;53.016;8.346;2022-08-25T16:35:31;35.00;1.00
1978;DHT22;989;53.016;8.346;2022-08-25T16:37:58;34.60;1.00
1978;DHT22;989;53.016;8.346;2022-08-25T16:40:23;34.60;1.00
1978;DHT22;989;53.016;8.346;2022-08-25T16:42:51;34.30;1.00
1978;DHT22;989;53.016;8.346;2022-08-25T16:45:18;33.70;1.00
1978;DHT22;989;53.016;8.346;2022-08-25T16:47:44;33.10;1.00
1978;DHT22;989;53.016;8.346;2022-08-25T16:50:11;33.00;1.00
1978;DHT22;989;53.016;8.346;2022-08-25T16:52:37;33.30;1.00
1978;DHT22;989;53.016;8.346;2022-08-25T16:55:21;33.20;1.00
1978;DHT22;989;53.016;8.346;2022-08-25T16:57:51;33.40;1.00
1978;DHT22;989;53.016;8.346;2022-08-25T17:00:22;33.40;1.00
1978;DHT22;989;53.016;8.346;2022-08-25T17:02:53;33.80;1.00
1978;DHT22;989;53.016;8.346;2022-08-25T17:05:20;33.80;1.00
1978;DHT22;989;53.016;8.346;2022-08-25T17:07:46;33.50;1.00
1978;DHT22;989;53.016;8.346;2022-08-25T17:10:40;33.50;1.00
1978;DHT22;989;53.016;8.346;2022-08-25T17:13:07;33.50;1.00
1978;DHT22;989;53.016;8.346;2022-08-25T17:15:33;33.60;1.00
1978;DHT22;989;53.016;8.346;2022-08-25T17:17:59;33.60;1.00
1978;DHT22;989;53.016;8.346;2022-08-25T17:20:25;33.50;1.00
1978;DHT22;989;53.016;8.346;2022-08-25T17:22:50;32.90;1.00
1978;DHT22;989;53.016;8.346;2022-08-25T17:25:16;32.70;1.00
1978;DHT22;989;53.016;8.346;2022-08-25T17:27:42;32.40;1.00
1978;DHT22;989;53.016;8.346;2022-08-25T17:30:08;32.20;1.00
1978;DHT22;989;53.016;8.346;2022-08-25T17:32:34;31.90;1.00
1978;DHT22;989;53.016;8.346;2022-08-25T17:35:00;31.70;1.00
1978;DHT22;989;53.016;8.346;2022-08-25T17:37:26;31.80;1.00
1978;DHT22;989;53.016;8.346;2022-08-25T17:39:52;32.00;1.00
1978;DHT22;989;53.016;8.346;2022-08-25T17:42:17;31.90;1.00
1978;DHT22;989;53.016;8.346;2022-08-25T17:44:43;31.60;1.00
1978;DHT22;989;53.016;8.346;2022-08-25T17:47:10;31.50;1.00
1978;DHT22;989;53.016;8.346;2022-08-25T17:49:35;31.20;1.00
1978;DHT22;989;53.016;8.346;2022-08-25T17:52:02;30.80;1.00
1978;DHT22;989;53.016;8.346;2022-08-25T17:54:28;30.10;1.00
1978;DHT22;989;53.016;8.346;2022-08-25T17:56:54;29.50;1.00
1978;DHT22;989;53.016;8.346;2022-08-25T17:59:20;29.00;1.00
1978;DHT22;989;53.016;8.346;2022-08-25T18:01:46;28.60;1.00
1978;DHT22;989;53.016;8.346;2022-08-25T18:04:12;28.30;1.00
1978;DHT22;989;53.016;8.346;2022-08-25T18:06:38;28.00;1.00
1978;DHT22;989;53.016;8.346;2022-08-25T18:09:03;27.70;1.00
1978;DHT22;989;53.016;8.346;2022-08-25T18:11:30;27.50;1.00
1978;DHT22;989;53.016;8.346;2022-08-25T18:13:57;27.20;1.00
1978;DHT22;989;53.016;8.346;2022-08-25T18:16:24;27.00;1.00
1978;DHT22;989;53.016;8.346;2022-08-25T18:18:50;26.80;1.00
1978;DHT22;989;53.016;8.346;2022-08-25T18:21:17;26.60;1.00
1978;DHT22;989;53.016;8.346;2022-08-25T18:23:45;26.50;1.00
1978;DHT22;989;53.016;8.346;2022-08-25T18:26:11;26.40;1.00
1978;DHT22;989;53.016;8.346;2022-08-25T18:28:37;26.30;1.00